createdAt,value
2022-07-30T00:02:03.051Z,17.70
2022-07-30T00:04:36.155Z,17.70
2022-07-30T00:07:09.360Z,17.60
2022-07-30T00:09:43.878Z,17.60
2022-07-30T00:12:16.968Z,17.50
2022-07-30T00:14:50.121Z,17.50
2022-07-30T00:17:23.259Z,17.50
2022-07-30T00:19:56.569Z,17.50
2022-07-30T00:22:29.672Z,17.50
2022-07-30T00:25:04.692Z,17.40
2022-07-30T00:27:38.038Z,17.40
2022-07-30T00:30:12.894Z,17.30
2022-07-30T00:32:46.008Z,17.30
2022-07-30T00:35:19.395Z,17.30
2022-07-30T00:37:52.534Z,17.20
2022-07-30T00:40:27.264Z,17.20
2022-07-30T00:43:00.388Z,17.20
2022-07-30T00:45:34.487Z,17.20
2022-07-30T00:48:07.758Z,17.20
2022-07-30T00:50:41.582Z,17.20
2022-07-30T00:53:18.450Z,17.20
2022-07-30T00:55:52.902Z,17.20
2022-07-30T00:58:26.275Z,17.20
2022-07-30T01:00:59.489Z,17.10
2022-07-30T01:03:32.646Z,17.10
2022-07-30T01:06:06.054Z,17.20
2022-07-30T01:08:47.205Z,17.20
2022-07-30T01:11:21.696Z,17.20
2022-07-30T01:13:54.830Z,17.10
2022-07-30T01:16:28.107Z,17.10
2022-07-30T01:19:21.573Z,17.20
2022-07-30T01:22:04.228Z,17.20
2022-07-30T01:24:42.143Z,17.20
2022-07-30T01:27:19.999Z,17.20
2022-07-30T01:29:55.019Z,17.20
2022-07-30T01:32:29.362Z,17.10
2022-07-30T01:35:04.109Z,17.10
2022-07-30T01:37:40.569Z,17.00
2022-07-30T01:40:15.709Z,17.00
2022-07-30T01:42:54.852Z,17.00
2022-07-30T01:45:31.410Z,17.00
2022-07-30T01:48:12.115Z,17.00
2022-07-30T01:50:48.043Z,16.90
2022-07-30T01:53:32.719Z,16.90
2022-07-30T01:56:10.540Z,16.90
2022-07-30T01:58:49.901Z,16.90
2022-07-30T02:01:23.077Z,16.90
2022-07-30T02:03:56.325Z,16.90
2022-07-30T02:06:36.002Z,16.90
2022-07-30T02:09:11.508Z,16.90
2022-07-30T02:12:05.820Z,16.80
2022-07-30T02:14:50.855Z,16.80
2022-07-30T02:17:30.447Z,16.70
2022-07-30T02:20:15.005Z,16.80
2022-07-30T02:22:50.037Z,16.70
2022-07-30T02:25:23.909Z,16.70
2022-07-30T02:27:59.778Z,16.70
2022-07-30T02:30:37.755Z,16.70
2022-07-30T02:33:12.828Z,16.70
2022-07-30T02:35:46.588Z,16.70
2022-07-30T02:38:21.785Z,16.70
2022-07-30T02:40:57.145Z,16.60
2022-07-30T02:43:35.481Z,16.60
2022-07-30T02:46:13.569Z,16.50
2022-07-30T02:48:48.098Z,16.60
2022-07-30T02:51:23.119Z,16.50
2022-07-30T02:53:57.899Z,16.60
2022-07-30T02:56:32.399Z,16.60
2022-07-30T02:59:07.621Z,16.50
2022-07-30T03:01:44.040Z,16.60
2022-07-30T03:04:20.208Z,16.50
2022-07-30T03:06:54.932Z,16.50
2022-07-30T03:09:51.116Z,16.50
2022-07-30T03:12:23.808Z,16.50
2022-07-30T03:14:57.712Z,16.50
2022-07-30T03:17:38.853Z,16.40
2022-07-30T03:20:17.043Z,16.30
2022-07-30T03:22:54.674Z,16.30
2022-07-30T03:25:30.013Z,16.20
2022-07-30T03:28:04.936Z,16.20
2022-07-30T03:30:38.520Z,16.20
2022-07-30T03:33:13.582Z,16.20
2022-07-30T03:35:49.289Z,16.20
2022-07-30T03:38:23.918Z,16.10
2022-07-30T03:40:57.801Z,16.10
2022-07-30T03:43:33.127Z,16.10
2022-07-30T03:46:08.774Z,16.10
2022-07-30T03:48:43.990Z,16.10
2022-07-30T03:51:18.346Z,16.00
2022-07-30T03:53:52.628Z,16.10
2022-07-30T03:56:25.953Z,16.00
2022-07-30T03:58:59.124Z,15.90
2022-07-30T04:01:32.683Z,16.00
2022-07-30T04:04:08.365Z,15.90
2022-07-30T04:06:42.932Z,15.90
2022-07-30T04:09:16.180Z,15.90
2022-07-30T04:11:49.265Z,15.90
2022-07-30T04:14:22.401Z,15.90
2022-07-30T04:17:01.656Z,15.80
2022-07-30T04:19:40.147Z,15.80
2022-07-30T04:22:17.158Z,15.90
2022-07-30T04:24:52.157Z,15.90
2022-07-30T04:27:25.959Z,15.90
2022-07-30T04:29:59.862Z,15.90
2022-07-30T04:32:34.113Z,15.90
2022-07-30T04:35:09.585Z,15.90
2022-07-30T04:37:42.729Z,16.00
2022-07-30T04:40:15.837Z,15.90
2022-07-30T04:42:49.386Z,16.00
2022-07-30T04:45:22.552Z,15.90
2022-07-30T04:47:55.661Z,16.00
2022-07-30T04:50:31.037Z,15.90
2022-07-30T04:53:04.636Z,15.90
2022-07-30T04:55:40.627Z,15.90
2022-07-30T04:58:16.625Z,16.00
2022-07-30T05:00:53.086Z,16.10
2022-07-30T05:03:27.571Z,16.10
2022-07-30T05:06:02.584Z,16.10
2022-07-30T05:08:35.743Z,16.20
2022-07-30T05:11:13.433Z,16.20
2022-07-30T05:13:48.812Z,16.30
2022-07-30T05:16:21.939Z,16.40
2022-07-30T05:18:55.307Z,16.60
2022-07-30T05:21:29.885Z,16.70
2022-07-30T05:24:03.519Z,16.80
2022-07-30T05:26:36.712Z,17.00
2022-07-30T05:29:09.855Z,17.60
2022-07-30T05:31:52.830Z,18.20
2022-07-30T05:34:26.322Z,18.90
2022-07-30T05:37:01.109Z,19.40
2022-07-30T05:39:35.114Z,19.70
2022-07-30T05:42:13.978Z,20.20
2022-07-30T05:44:47.076Z,20.50
2022-07-30T05:47:21.107Z,20.80
2022-07-30T05:49:55.859Z,21.00
2022-07-30T05:52:30.328Z,21.20
2022-07-30T05:55:03.553Z,21.30
2022-07-30T05:57:37.166Z,21.40
2022-07-30T06:00:12.538Z,21.50
2022-07-30T06:02:45.762Z,21.70
2022-07-30T06:05:19.459Z,21.90
2022-07-30T06:07:53.894Z,22.10
2022-07-30T06:10:27.268Z,22.30
2022-07-30T06:13:00.472Z,22.40
2022-07-30T06:15:33.758Z,22.50
2022-07-30T06:18:06.879Z,22.70
2022-07-30T06:20:39.979Z,22.80
2022-07-30T06:23:14.394Z,23.10
2022-07-30T06:25:49.126Z,23.10
2022-07-30T06:28:39.002Z,23.30
2022-07-30T06:31:12.654Z,23.30
2022-07-30T06:33:45.860Z,23.70
2022-07-30T06:36:18.938Z,24.00
2022-07-30T06:38:53.344Z,24.30
2022-07-30T06:41:26.539Z,24.50
2022-07-30T06:43:59.654Z,24.60
2022-07-30T06:46:32.759Z,24.90
2022-07-30T06:49:06.074Z,24.90
2022-07-30T06:51:39.207Z,25.00
2022-07-30T06:54:13.904Z,25.00
2022-07-30T06:56:47.069Z,25.00
2022-07-30T06:59:20.358Z,25.40
2022-07-30T07:01:54.332Z,25.70
2022-07-30T07:04:27.561Z,25.90
2022-07-30T07:07:01.055Z,26.40
2022-07-30T07:09:47.182Z,26.30
2022-07-30T07:12:20.270Z,26.00
2022-07-30T07:14:53.459Z,26.40
2022-07-30T07:17:26.570Z,26.60
2022-07-30T07:20:02.568Z,26.40
2022-07-30T07:22:36.216Z,26.40
2022-07-30T07:25:11.273Z,26.10
2022-07-30T07:27:44.423Z,26.20
2022-07-30T07:30:37.557Z,26.00
2022-07-30T07:33:12.124Z,25.90
2022-07-30T07:35:49.757Z,25.90
2022-07-30T07:38:24.330Z,25.90
2022-07-30T07:40:58.738Z,26.00
2022-07-30T07:43:31.845Z,25.80
2022-07-30T07:46:05.039Z,25.70
2022-07-30T07:48:39.334Z,25.80
2022-07-30T07:51:12.607Z,25.80
2022-07-30T07:54:00.330Z,26.50
2022-07-30T07:56:40.140Z,26.60
2022-07-30T07:59:14.136Z,27.10
2022-07-30T08:01:50.413Z,27.40
2022-07-30T08:04:23.502Z,27.70
2022-07-30T08:06:56.610Z,27.70
2022-07-30T08:09:42.023Z,27.40
2022-07-30T08:12:19.261Z,27.40
2022-07-30T08:14:52.860Z,27.30
2022-07-30T08:17:26.138Z,27.60
2022-07-30T08:20:01.194Z,27.60
2022-07-30T08:22:34.296Z,27.90
2022-07-30T08:25:08.738Z,28.40
2022-07-30T08:27:45.211Z,28.30
2022-07-30T08:30:18.311Z,28.20
2022-07-30T08:32:51.396Z,28.00
2022-07-30T08:35:24.605Z,27.90
2022-07-30T08:37:57.722Z,28.50
2022-07-30T08:40:34.543Z,28.60
2022-07-30T08:43:09.516Z,28.60
2022-07-30T08:45:46.440Z,28.40
2022-07-30T08:48:23.002Z,28.40
2022-07-30T08:50:56.437Z,28.90
2022-07-30T08:53:30.682Z,29.00
2022-07-30T08:56:05.050Z,29.00
2022-07-30T08:58:39.762Z,28.90
2022-07-30T09:01:13.583Z,28.40
2022-07-30T09:03:46.801Z,27.80
2022-07-30T09:06:20.328Z,28.10
2022-07-30T09:08:53.518Z,28.00
2022-07-30T09:11:26.883Z,28.00
2022-07-30T09:14:10.705Z,27.50
2022-07-30T09:16:45.917Z,27.70
2022-07-30T09:19:21.822Z,27.40
2022-07-30T09:21:59.195Z,27.50
2022-07-30T09:24:44.073Z,27.70
2022-07-30T09:27:17.506Z,28.00
2022-07-30T09:29:59.929Z,27.90
2022-07-30T09:32:49.817Z,28.10
2022-07-30T09:35:24.007Z,28.80
2022-07-30T09:38:05.975Z,28.60
2022-07-30T09:40:43.398Z,28.40
2022-07-30T09:43:18.254Z,28.70
2022-07-30T09:45:58.275Z,28.70
2022-07-30T09:48:31.827Z,28.70
2022-07-30T09:51:05.254Z,28.20
2022-07-30T09:57:25.457Z,27.40
2022-07-30T10:00:18.652Z,27.10
2022-07-30T10:02:54.157Z,27.70
2022-07-30T10:05:27.841Z,27.70
2022-07-30T10:08:09.422Z,27.70
2022-07-30T10:10:50.980Z,27.70
2022-07-30T10:13:24.422Z,27.40
2022-07-30T10:16:06.684Z,27.20
2022-07-30T10:18:44.009Z,27.70
2022-07-30T10:21:17.691Z,27.80
2022-07-30T10:23:52.534Z,27.90
2022-07-30T10:26:26.674Z,27.50
2022-07-30T10:29:00.311Z,27.50
2022-07-30T10:31:47.134Z,27.20
2022-07-30T10:34:27.030Z,27.20
2022-07-30T10:37:06.668Z,27.20
2022-07-30T10:39:48.907Z,26.90
2022-07-30T10:42:40.107Z,26.70
2022-07-30T10:45:19.511Z,26.30
2022-07-30T10:47:54.230Z,26.60
2022-07-30T10:50:29.207Z,27.30
2022-07-30T10:53:02.924Z,27.30
2022-07-30T10:55:38.659Z,27.40
2022-07-30T10:58:15.635Z,27.70
2022-07-30T11:01:00.248Z,27.90
2022-07-30T11:03:41.157Z,28.30
2022-07-30T11:06:29.212Z,28.70
2022-07-30T11:09:03.478Z,28.70
2022-07-30T11:12:16.124Z,28.50
2022-07-30T11:15:07.375Z,27.80
2022-07-30T11:18:13.157Z,27.60
2022-07-30T11:21:21.528Z,27.50
2022-07-30T11:23:57.094Z,27.20
2022-07-30T11:26:52.881Z,27.10
2022-07-30T11:29:50.470Z,27.00
2022-07-30T11:32:32.031Z,26.80
2022-07-30T11:35:18.654Z,26.90
2022-07-30T11:38:05.078Z,27.40
2022-07-30T11:41:10.883Z,27.80
2022-07-30T11:43:43.954Z,28.10
2022-07-30T11:46:28.991Z,28.20
2022-07-30T11:49:08.629Z,28.30
2022-07-30T11:51:43.244Z,28.50
2022-07-30T11:54:16.987Z,28.80
2022-07-30T11:56:54.111Z,28.60
2022-07-30T11:59:27.937Z,28.60
2022-07-30T12:02:02.162Z,28.40
2022-07-30T12:04:44.649Z,28.20
2022-07-30T12:07:23.893Z,28.30
2022-07-30T12:10:14.586Z,28.40
2022-07-30T12:12:50.789Z,28.60
2022-07-30T12:15:32.734Z,28.70
2022-07-30T12:18:25.417Z,28.70
2022-07-30T12:21:01.254Z,28.50
2022-07-30T12:23:34.313Z,28.40
2022-07-30T12:26:07.463Z,28.40
2022-07-30T12:28:42.438Z,28.50
2022-07-30T12:31:17.636Z,28.50
2022-07-30T12:33:50.926Z,28.50
2022-07-30T12:36:30.779Z,28.40
2022-07-30T12:39:06.763Z,28.80
2022-07-30T12:41:45.638Z,28.80
2022-07-30T12:44:40.776Z,28.70
2022-07-30T12:47:23.851Z,28.30
2022-07-30T12:50:00.649Z,28.00
2022-07-30T12:52:37.695Z,27.70
2022-07-30T12:55:13.616Z,27.80
2022-07-30T12:58:02.987Z,27.90
2022-07-30T13:00:52.709Z,27.90
2022-07-30T13:03:28.348Z,27.90
2022-07-30T13:06:02.202Z,27.90
2022-07-30T13:08:52.485Z,27.80
2022-07-30T13:11:27.319Z,27.90
2022-07-30T13:14:01.708Z,28.00
2022-07-30T13:16:37.676Z,28.40
2022-07-30T13:19:12.963Z,28.50
2022-07-30T13:21:49.670Z,28.20
2022-07-30T13:24:23.505Z,27.90
2022-07-30T13:26:57.471Z,27.90
2022-07-30T13:29:30.985Z,27.90
2022-07-30T13:32:06.070Z,27.70
2022-07-30T13:34:39.990Z,27.60
2022-07-30T13:37:13.122Z,27.50
2022-07-30T13:39:46.195Z,27.50
2022-07-30T13:42:19.296Z,27.40
2022-07-30T13:44:54.707Z,27.60
2022-07-30T13:47:29.591Z,27.60
2022-07-30T13:50:02.786Z,27.80
2022-07-30T13:56:52.667Z,27.90
2022-07-30T13:59:51.256Z,27.80
2022-07-30T14:02:26.446Z,27.70
2022-07-30T14:05:34.374Z,27.80
2022-07-30T14:08:23.048Z,27.80
2022-07-30T14:11:31.962Z,27.90
2022-07-30T14:14:42.842Z,28.00
2022-07-30T14:17:56.601Z,27.90
2022-07-30T14:20:49.705Z,27.90
2022-07-30T14:24:28.462Z,27.80
2022-07-30T14:30:32.749Z,27.90
2022-07-30T14:33:41.082Z,27.90
2022-07-30T14:36:39.811Z,27.90
2022-07-30T14:39:45.778Z,28.20
2022-07-30T14:42:21.268Z,28.20
2022-07-30T14:44:57.073Z,28.40
2022-07-30T14:47:30.533Z,28.10
2022-07-30T14:50:04.865Z,28.10
2022-07-30T14:52:40.147Z,28.10
2022-07-30T14:55:13.322Z,28.00
2022-07-30T14:57:46.674Z,28.00
2022-07-30T15:00:21.314Z,28.00
2022-07-30T15:02:57.696Z,28.10
2022-07-30T15:05:31.073Z,28.10
2022-07-30T15:08:06.377Z,28.10
2022-07-30T15:10:41.287Z,28.10
2022-07-30T15:13:17.078Z,28.20
2022-07-30T15:15:51.924Z,28.20
2022-07-30T15:18:25.335Z,28.30
2022-07-30T15:20:58.552Z,28.40
2022-07-30T15:23:33.369Z,28.30
2022-07-30T15:26:06.716Z,28.30
2022-07-30T15:28:40.099Z,28.30
2022-07-30T15:31:13.363Z,28.20
2022-07-30T15:33:47.174Z,28.30
2022-07-30T15:36:20.270Z,28.20
2022-07-30T15:38:55.109Z,28.20
2022-07-30T15:41:28.243Z,28.10
2022-07-30T15:44:01.383Z,28.00
2022-07-30T15:46:34.786Z,28.10
2022-07-30T15:49:08.249Z,28.00
2022-07-30T15:51:47.452Z,27.90
2022-07-30T15:54:23.865Z,27.90
2022-07-30T15:57:01.152Z,27.90
2022-07-30T15:59:34.793Z,27.80
2022-07-30T16:02:07.937Z,27.80
2022-07-30T16:04:41.110Z,27.80
2022-07-30T16:07:14.491Z,27.90
2022-07-30T16:09:48.932Z,28.00
2022-07-30T16:12:22.047Z,28.00
2022-07-30T16:14:55.231Z,28.10
2022-07-30T16:17:28.527Z,28.10
2022-07-30T16:20:01.779Z,28.00
2022-07-30T16:22:34.871Z,28.00
2022-07-30T16:25:10.258Z,28.10
2022-07-30T16:27:43.409Z,28.10
2022-07-30T16:30:16.575Z,28.10
2022-07-30T16:32:50.518Z,28.10
2022-07-30T16:35:24.539Z,28.00
2022-07-30T16:38:02.710Z,27.90
2022-07-30T16:40:37.222Z,27.70
2022-07-30T16:43:10.360Z,27.60
2022-07-30T16:45:43.896Z,27.50
2022-07-30T16:48:17.100Z,27.30
2022-07-30T16:50:50.243Z,27.30
2022-07-30T16:53:23.366Z,27.40
2022-07-30T16:55:58.495Z,27.30
2022-07-30T16:58:31.779Z,27.30
2022-07-30T17:01:05.008Z,27.40
2022-07-30T17:03:38.138Z,27.40
2022-07-30T17:06:11.220Z,27.40
2022-07-30T17:08:44.812Z,27.40
2022-07-30T17:11:46.324Z,27.30
2022-07-30T17:14:13.698Z,27.30
2022-07-30T17:16:46.839Z,27.30
2022-07-30T17:19:19.962Z,27.30
2022-07-30T17:21:53.554Z,27.20
2022-07-30T17:24:26.698Z,27.20
2022-07-30T17:27:01.198Z,27.10
2022-07-30T17:29:34.349Z,27.00
2022-07-30T17:32:23.340Z,26.80
2022-07-30T17:34:56.463Z,26.70
2022-07-30T17:37:29.573Z,26.60
2022-07-30T17:40:27.478Z,26.60
2022-07-30T17:43:03.098Z,26.50
2022-07-30T17:45:37.673Z,26.40
2022-07-30T17:48:10.970Z,26.30
2022-07-30T17:50:44.076Z,26.30
2022-07-30T17:53:19.291Z,26.20
2022-07-30T17:55:57.439Z,26.20
2022-07-30T17:58:32.659Z,26.10
2022-07-30T18:01:06.094Z,26.00
2022-07-30T18:03:39.615Z,25.90
2022-07-30T18:06:18.319Z,25.90
2022-07-30T18:08:51.640Z,25.80
2022-07-30T18:11:25.193Z,25.70
2022-07-30T18:14:00.190Z,25.60
2022-07-30T18:16:33.317Z,25.50
2022-07-30T18:19:06.479Z,25.30
2022-07-30T18:21:39.606Z,25.20
2022-07-30T18:24:13.328Z,25.00
2022-07-30T18:26:46.895Z,24.90
2022-07-30T18:29:21.414Z,24.80
2022-07-30T18:31:54.507Z,24.70
2022-07-30T18:34:27.667Z,24.60
2022-07-30T18:37:00.745Z,24.40
2022-07-30T18:39:33.869Z,24.30
2022-07-30T18:42:07.812Z,24.20
2022-07-30T18:44:42.503Z,24.20
2022-07-30T18:47:15.731Z,24.10
2022-07-30T18:49:50.173Z,24.00
2022-07-30T18:52:23.530Z,23.90
2022-07-30T18:54:56.615Z,23.80
2022-07-30T18:57:29.741Z,23.70
2022-07-30T19:00:05.754Z,23.60
2022-07-30T19:02:39.781Z,23.50
2022-07-30T19:05:13.090Z,23.40
2022-07-30T19:07:55.359Z,23.30
2022-07-30T19:10:31.405Z,23.20
2022-07-30T19:13:05.154Z,23.10
2022-07-30T19:15:40.207Z,23.00
2022-07-30T19:18:13.261Z,22.90
2022-07-30T19:20:46.595Z,22.80
2022-07-30T19:23:19.736Z,22.60
2022-07-30T19:25:52.862Z,22.50
2022-07-30T19:28:26.777Z,22.40
2022-07-30T19:31:01.279Z,22.40
2022-07-30T19:33:34.366Z,22.30
2022-07-30T19:36:07.787Z,22.20
2022-07-30T19:38:44.147Z,22.20
2022-07-30T19:41:18.508Z,22.10
2022-07-30T19:43:57.917Z,22.10
2022-07-30T19:46:32.787Z,22.10
2022-07-30T19:49:07.051Z,22.00
2022-07-30T19:52:11.217Z,22.00
2022-07-30T19:54:33.639Z,21.80
2022-07-30T19:57:09.829Z,21.80
2022-07-30T19:59:46.545Z,21.70
2022-07-30T20:02:35.670Z,21.50
2022-07-30T20:05:11.788Z,21.40
2022-07-30T20:07:48.971Z,21.40
2022-07-30T20:10:22.617Z,21.20
2022-07-30T20:12:55.724Z,21.20
2022-07-30T20:15:30.314Z,21.10
2022-07-30T20:18:05.259Z,21.00
2022-07-30T20:20:41.329Z,20.80
2022-07-30T20:23:14.664Z,20.80
2022-07-30T20:25:48.098Z,20.80
2022-07-30T20:28:21.709Z,20.70
2022-07-30T20:31:00.424Z,20.60
2022-07-30T20:33:36.028Z,20.60
2022-07-30T20:36:11.594Z,20.50
2022-07-30T20:38:47.103Z,20.40
2022-07-30T20:41:27.104Z,20.40
2022-07-30T20:44:25.252Z,20.40
2022-07-30T20:47:28.261Z,20.30
2022-07-30T20:50:30.617Z,20.20
2022-07-30T20:53:14.442Z,20.10
2022-07-30T20:55:56.348Z,20.00
2022-07-30T20:58:53.519Z,20.00
2022-07-30T21:02:00.516Z,19.90
2022-07-30T21:04:46.509Z,19.80
2022-07-30T21:07:59.809Z,19.70
2022-07-30T21:10:50.102Z,19.60
2022-07-30T21:13:35.405Z,19.50
2022-07-30T21:16:32.498Z,19.50
2022-07-30T21:19:33.362Z,19.50
2022-07-30T21:22:35.969Z,19.50
2022-07-30T21:25:33.482Z,19.40
2022-07-30T21:28:27.681Z,19.40
2022-07-30T21:38:04.494Z,19.10
2022-07-30T21:41:15.472Z,19.10
2022-07-30T21:44:00.587Z,19.00
2022-07-30T21:47:11.643Z,19.00
2022-07-30T21:49:55.913Z,18.90
2022-07-30T21:53:04.427Z,18.80
2022-07-30T21:58:45.728Z,18.60
2022-07-30T22:01:39.509Z,18.60
2022-07-30T22:04:39.594Z,18.50
2022-07-30T22:07:13.206Z,18.40
2022-07-30T22:09:47.672Z,18.20
2022-07-30T22:12:20.781Z,18.10
2022-07-30T22:14:53.850Z,18.00
2022-07-30T22:17:36.596Z,18.00
2022-07-30T22:20:12.539Z,18.10
2022-07-30T22:22:45.628Z,18.00
2022-07-30T22:25:21.607Z,18.00
2022-07-30T22:27:57.195Z,18.00
2022-07-30T22:30:31.120Z,18.00
2022-07-30T22:33:13.071Z,17.80
2022-07-30T22:35:49.691Z,17.90
2022-07-30T22:38:23.239Z,17.80
2022-07-30T22:40:57.692Z,17.80
2022-07-30T22:43:35.512Z,17.80
2022-07-30T22:46:14.922Z,17.80
2022-07-30T22:49:03.822Z,17.80
2022-07-30T22:52:02.851Z,17.80
2022-07-30T22:54:30.477Z,17.70
2022-07-30T22:57:05.103Z,17.60
2022-07-30T22:59:58.448Z,17.60
2022-07-30T23:02:31.269Z,17.60
2022-07-30T23:05:04.924Z,17.60
2022-07-30T23:07:39.794Z,17.60
2022-07-30T23:10:18.054Z,17.60
2022-07-30T23:12:53.597Z,17.50
2022-07-30T23:15:26.974Z,17.50
2022-07-30T23:18:00.278Z,17.40
2022-07-30T23:20:33.688Z,17.40
2022-07-30T23:23:06.755Z,17.40
2022-07-30T23:25:40.615Z,17.40
2022-07-30T23:28:15.088Z,17.30
2022-07-30T23:30:49.041Z,17.20
2022-07-30T23:33:22.170Z,17.20
2022-07-30T23:35:55.261Z,17.00
2022-07-30T23:38:28.801Z,17.00
2022-07-30T23:41:04.027Z,17.00
2022-07-30T23:43:39.753Z,17.00
2022-07-30T23:46:13.914Z,16.90
2022-07-30T23:48:47.378Z,17.00
2022-07-30T23:51:20.619Z,17.00
2022-07-30T23:53:53.698Z,16.90
2022-07-30T23:56:27.232Z,16.80
2022-07-30T23:59:01.710Z,16.80
